sensor_id;sensor_type;location;lat;lon;timestamp;P1;durP1;ratioP1;P2;durP2;ratioP2
65583;SDS011;73032;43.592;1.458;2023-11-19T00:00:07;12.95;;;6.00;;
65583;SDS011;73032;43.592;1.458;2023-11-19T00:02:39;9.50;;;5.20;;
65583;SDS011;73032;43.592;1.458;2023-11-19T00:05:07;12.93;;;5.93;;
65583;SDS011;73032;43.592;1.458;2023-11-19T00:07:40;10.32;;;5.60;;
65583;SDS011;73032;43.592;1.458;2023-11-19T00:10:11;9.98;;;5.65;;
65583;SDS011;73032;43.592;1.458;2023-11-19T00:12:41;11.48;;;4.85;;
65583;SDS011;73032;43.592;1.458;2023-11-19T00:15:08;9.25;;;4.80;;
65583;SDS011;73032;43.592;1.458;2023-11-19T00:17:38;9.43;;;4.68;;
65583;SDS011;73032;43.592;1.458;2023-11-19T00:20:15;10.45;;;5.18;;
65583;SDS011;73032;43.592;1.458;2023-11-19T00:22:45;11.27;;;4.57;;
65583;SDS011;73032;43.592;1.458;2023-11-19T00:25:16;9.48;;;4.55;;
65583;SDS011;73032;43.592;1.458;2023-11-19T00:27:48;10.00;;;5.20;;
65583;SDS011;73032;43.592;1.458;2023-11-19T00:30:15;9.20;;;4.57;;
65583;SDS011;73032;43.592;1.458;2023-11-19T00:32:42;8.63;;;4.75;;
65583;SDS011;73032;43.592;1.458;2023-11-19T00:35:09;8.32;;;4.50;;
65583;SDS011;73032;43.592;1.458;2023-11-19T00:37:41;8.95;;;4.30;;
65583;SDS011;73032;43.592;1.458;2023-11-19T00:40:09;9.38;;;4.32;;
65583;SDS011;73032;43.592;1.458;2023-11-19T00:42:37;8.70;;;4.22;;
65583;SDS011;73032;43.592;1.458;2023-11-19T00:45:04;10.70;;;4.80;;
65583;SDS011;73032;43.592;1.458;2023-11-19T00:47:35;10.10;;;4.50;;
65583;SDS011;73032;43.592;1.458;2023-11-19T00:50:02;10.43;;;4.50;;
65583;SDS011;73032;43.592;1.458;2023-11-19T00:52:30;7.47;;;4.53;;
65583;SDS011;73032;43.592;1.458;2023-11-19T00:54:56;8.30;;;4.45;;
65583;SDS011;73032;43.592;1.458;2023-11-19T00:57:23;10.35;;;4.47;;
65583;SDS011;73032;43.592;1.458;2023-11-19T00:59:50;8.63;;;4.60;;
65583;SDS011;73032;43.592;1.458;2023-11-19T01:02:17;8.27;;;4.20;;
65583;SDS011;73032;43.592;1.458;2023-11-19T01:04:43;8.13;;;4.72;;
65583;SDS011;73032;43.592;1.458;2023-11-19T01:07:10;7.35;;;4.40;;
65583;SDS011;73032;43.592;1.458;2023-11-19T01:09:41;7.93;;;4.25;;
65583;SDS011;73032;43.592;1.458;2023-11-19T01:12:08;8.02;;;4.53;;
65583;SDS011;73032;43.592;1.458;2023-11-19T01:14:37;8.48;;;3.92;;
65583;SDS011;73032;43.592;1.458;2023-11-19T01:17:04;7.30;;;3.97;;
65583;SDS011;73032;43.592;1.458;2023-11-19T01:19:31;8.65;;;4.65;;
65583;SDS011;73032;43.592;1.458;2023-11-19T01:21:58;7.35;;;3.78;;
65583;SDS011;73032;43.592;1.458;2023-11-19T01:24:25;8.88;;;4.80;;
65583;SDS011;73032;43.592;1.458;2023-11-19T01:26:54;7.78;;;4.07;;
65583;SDS011;73032;43.592;1.458;2023-11-19T01:29:21;7.38;;;3.83;;
65583;SDS011;73032;43.592;1.458;2023-11-19T01:31:48;8.52;;;3.80;;
65583;SDS011;73032;43.592;1.458;2023-11-19T01:34:14;8.63;;;4.10;;
65583;SDS011;73032;43.592;1.458;2023-11-19T01:36:41;7.47;;;3.78;;
65583;SDS011;73032;43.592;1.458;2023-11-19T01:39:08;6.05;;;3.47;;
65583;SDS011;73032;43.592;1.458;2023-11-19T01:41:35;8.25;;;4.10;;
65583;SDS011;73032;43.592;1.458;2023-11-19T01:44:02;7.85;;;3.85;;
65583;SDS011;73032;43.592;1.458;2023-11-19T01:46:32;8.43;;;4.20;;
65583;SDS011;73032;43.592;1.458;2023-11-19T01:48:59;7.85;;;3.75;;
65583;SDS011;73032;43.592;1.458;2023-11-19T01:51:27;8.27;;;3.58;;
65583;SDS011;73032;43.592;1.458;2023-11-19T01:53:54;10.68;;;3.83;;
65583;SDS011;73032;43.592;1.458;2023-11-19T01:56:23;9.57;;;3.75;;
65583;SDS011;73032;43.592;1.458;2023-11-19T01:58:52;7.82;;;3.25;;
65583;SDS011;73032;43.592;1.458;2023-11-19T02:01:21;7.68;;;3.88;;
65583;SDS011;73032;43.592;1.458;2023-11-19T02:03:48;7.18;;;3.80;;
65583;SDS011;73032;43.592;1.458;2023-11-19T02:06:15;9.05;;;3.90;;
65583;SDS011;73032;43.592;1.458;2023-11-19T02:08:42;8.45;;;3.70;;
65583;SDS011;73032;43.592;1.458;2023-11-19T02:11:09;7.55;;;3.75;;
65583;SDS011;73032;43.592;1.458;2023-11-19T02:13:38;8.38;;;3.70;;
65583;SDS011;73032;43.592;1.458;2023-11-19T02:16:07;6.10;;;3.47;;
65583;SDS011;73032;43.592;1.458;2023-11-19T02:18:37;6.72;;;3.60;;
65583;SDS011;73032;43.592;1.458;2023-11-19T02:21:04;6.55;;;3.60;;
65583;SDS011;73032;43.592;1.458;2023-11-19T02:23:31;5.40;;;3.33;;
65583;SDS011;73032;43.592;1.458;2023-11-19T02:28:44;10.05;;;3.80;;
65583;SDS011;73032;43.592;1.458;2023-11-19T02:31:10;7.13;;;3.53;;
65583;SDS011;73032;43.592;1.458;2023-11-19T02:33:38;6.80;;;3.50;;
65583;SDS011;73032;43.592;1.458;2023-11-19T02:36:05;7.25;;;3.58;;
65583;SDS011;73032;43.592;1.458;2023-11-19T02:38:33;5.85;;;3.17;;
65583;SDS011;73032;43.592;1.458;2023-11-19T02:41:04;8.15;;;4.18;;
65583;SDS011;73032;43.592;1.458;2023-11-19T02:43:36;6.10;;;3.08;;
65583;SDS011;73032;43.592;1.458;2023-11-19T02:46:04;5.85;;;2.80;;
65583;SDS011;73032;43.592;1.458;2023-11-19T02:48:36;7.32;;;3.38;;
65583;SDS011;73032;43.592;1.458;2023-11-19T02:51:03;6.45;;;3.20;;
65583;SDS011;73032;43.592;1.458;2023-11-19T02:53:31;7.10;;;3.35;;
65583;SDS011;73032;43.592;1.458;2023-11-19T02:55:58;5.95;;;3.15;;
65583;SDS011;73032;43.592;1.458;2023-11-19T02:58:31;6.13;;;3.10;;
65583;SDS011;73032;43.592;1.458;2023-11-19T03:00:58;6.85;;;3.38;;
65583;SDS011;73032;43.592;1.458;2023-11-19T03:03:27;6.43;;;2.72;;
65583;SDS011;73032;43.592;1.458;2023-11-19T03:06:05;7.47;;;3.30;;
65583;SDS011;73032;43.592;1.458;2023-11-19T03:08:32;6.60;;;3.33;;
65583;SDS011;73032;43.592;1.458;2023-11-19T03:11:01;6.53;;;3.35;;
65583;SDS011;73032;43.592;1.458;2023-11-19T03:13:28;7.25;;;3.25;;
65583;SDS011;73032;43.592;1.458;2023-11-19T03:15:55;6.20;;;3.00;;
65583;SDS011;73032;43.592;1.458;2023-11-19T03:18:21;5.55;;;3.15;;
65583;SDS011;73032;43.592;1.458;2023-11-19T03:20:48;6.10;;;3.15;;
65583;SDS011;73032;43.592;1.458;2023-11-19T03:23:16;5.03;;;3.25;;
65583;SDS011;73032;43.592;1.458;2023-11-19T03:25:42;7.07;;;3.25;;
65583;SDS011;73032;43.592;1.458;2023-11-19T03:28:10;5.97;;;3.05;;
65583;SDS011;73032;43.592;1.458;2023-11-19T03:30:37;7.20;;;2.78;;
65583;SDS011;73032;43.592;1.458;2023-11-19T03:33:04;5.95;;;3.17;;
65583;SDS011;73032;43.592;1.458;2023-11-19T03:35:31;5.75;;;2.70;;
65583;SDS011;73032;43.592;1.458;2023-11-19T03:37:59;4.75;;;2.95;;
65583;SDS011;73032;43.592;1.458;2023-11-19T03:40:27;4.40;;;2.63;;
65583;SDS011;73032;43.592;1.458;2023-11-19T03:42:58;4.90;;;2.95;;
65583;SDS011;73032;43.592;1.458;2023-11-19T03:45:25;8.60;;;3.50;;
65583;SDS011;73032;43.592;1.458;2023-11-19T03:47:52;4.50;;;2.65;;
65583;SDS011;73032;43.592;1.458;2023-11-19T03:50:18;6.70;;;2.83;;
65583;SDS011;73032;43.592;1.458;2023-11-19T03:52:47;4.38;;;2.70;;
65583;SDS011;73032;43.592;1.458;2023-11-19T03:55:14;5.32;;;3.05;;
65583;SDS011;73032;43.592;1.458;2023-11-19T03:57:40;4.63;;;2.67;;
65583;SDS011;73032;43.592;1.458;2023-11-19T04:00:07;6.10;;;2.90;;
65583;SDS011;73032;43.592;1.458;2023-11-19T04:02:40;5.50;;;2.67;;
65583;SDS011;73032;43.592;1.458;2023-11-19T04:05:07;5.28;;;2.72;;
65583;SDS011;73032;43.592;1.458;2023-11-19T04:07:36;6.25;;;2.70;;
65583;SDS011;73032;43.592;1.458;2023-11-19T04:10:03;5.65;;;2.40;;
65583;SDS011;73032;43.592;1.458;2023-11-19T04:12:30;7.07;;;2.83;;
65583;SDS011;73032;43.592;1.458;2023-11-19T04:14:57;5.43;;;2.83;;
65583;SDS011;73032;43.592;1.458;2023-11-19T04:17:27;6.90;;;2.85;;
65583;SDS011;73032;43.592;1.458;2023-11-19T04:19:54;5.50;;;2.95;;
65583;SDS011;73032;43.592;1.458;2023-11-19T04:22:22;7.03;;;3.55;;
65583;SDS011;73032;43.592;1.458;2023-11-19T04:24:49;8.07;;;3.80;;
65583;SDS011;73032;43.592;1.458;2023-11-19T04:27:15;6.57;;;3.63;;
65583;SDS011;73032;43.592;1.458;2023-11-19T04:29:42;6.72;;;4.10;;
65583;SDS011;73032;43.592;1.458;2023-11-19T04:32:08;6.03;;;3.70;;
65583;SDS011;73032;43.592;1.458;2023-11-19T04:34:35;8.45;;;4.10;;
65583;SDS011;73032;43.592;1.458;2023-11-19T04:37:03;6.88;;;3.80;;
65583;SDS011;73032;43.592;1.458;2023-11-19T04:39:33;5.53;;;3.33;;
65583;SDS011;73032;43.592;1.458;2023-11-19T04:42:00;11.82;;;4.40;;
65583;SDS011;73032;43.592;1.458;2023-11-19T04:44:27;7.78;;;4.25;;
65583;SDS011;73032;43.592;1.458;2023-11-19T04:46:55;8.32;;;4.43;;
65583;SDS011;73032;43.592;1.458;2023-11-19T04:49:22;7.82;;;4.25;;
65583;SDS011;73032;43.592;1.458;2023-11-19T04:51:49;6.88;;;4.03;;
65583;SDS011;73032;43.592;1.458;2023-11-19T04:54:17;8.73;;;4.45;;
65583;SDS011;73032;43.592;1.458;2023-11-19T04:56:45;7.82;;;4.20;;
65583;SDS011;73032;43.592;1.458;2023-11-19T04:59:13;9.48;;;4.57;;
65583;SDS011;73032;43.592;1.458;2023-11-19T05:01:40;9.00;;;5.32;;
65583;SDS011;73032;43.592;1.458;2023-11-19T05:04:07;13.00;;;4.72;;
65583;SDS011;73032;43.592;1.458;2023-11-19T05:06:34;8.80;;;4.72;;
65583;SDS011;73032;43.592;1.458;2023-11-19T05:09:01;8.15;;;4.43;;
65583;SDS011;73032;43.592;1.458;2023-11-19T05:11:32;7.03;;;4.13;;
65583;SDS011;73032;43.592;1.458;2023-11-19T05:14:02;6.80;;;3.88;;
65583;SDS011;73032;43.592;1.458;2023-11-19T05:16:30;9.13;;;4.82;;
65583;SDS011;73032;43.592;1.458;2023-11-19T05:18:58;10.43;;;4.78;;
65583;SDS011;73032;43.592;1.458;2023-11-19T05:21:24;8.07;;;4.80;;
65583;SDS011;73032;43.592;1.458;2023-11-19T05:23:51;7.72;;;3.95;;
65583;SDS011;73032;43.592;1.458;2023-11-19T05:26:18;6.50;;;4.05;;
65583;SDS011;73032;43.592;1.458;2023-11-19T05:28:49;8.77;;;4.05;;
65583;SDS011;73032;43.592;1.458;2023-11-19T05:31:16;8.88;;;4.35;;
65583;SDS011;73032;43.592;1.458;2023-11-19T05:33:44;10.20;;;4.38;;
65583;SDS011;73032;43.592;1.458;2023-11-19T05:36:11;7.05;;;3.88;;
65583;SDS011;73032;43.592;1.458;2023-11-19T05:38:41;6.57;;;3.70;;
65583;SDS011;73032;43.592;1.458;2023-11-19T05:41:08;8.95;;;4.07;;
65583;SDS011;73032;43.592;1.458;2023-11-19T05:43:34;6.35;;;3.65;;
65583;SDS011;73032;43.592;1.458;2023-11-19T05:46:01;7.55;;;4.07;;
65583;SDS011;73032;43.592;1.458;2023-11-19T05:48:28;10.30;;;4.65;;
65583;SDS011;73032;43.592;1.458;2023-11-19T05:50:55;7.93;;;4.03;;
65583;SDS011;73032;43.592;1.458;2023-11-19T05:53:22;7.40;;;3.65;;
65583;SDS011;73032;43.592;1.458;2023-11-19T05:55:49;7.90;;;4.05;;
65583;SDS011;73032;43.592;1.458;2023-11-19T05:58:24;7.13;;;4.03;;
65583;SDS011;73032;43.592;1.458;2023-11-19T06:00:52;7.80;;;4.10;;
65583;SDS011;73032;43.592;1.458;2023-11-19T06:03:19;7.85;;;3.88;;
65583;SDS011;73032;43.592;1.458;2023-11-19T06:05:48;6.60;;;3.42;;
65583;SDS011;73032;43.592;1.458;2023-11-19T06:08:15;8.68;;;3.35;;
65583;SDS011;73032;43.592;1.458;2023-11-19T06:10:43;7.03;;;3.42;;
65583;SDS011;73032;43.592;1.458;2023-11-19T06:13:13;8.10;;;3.60;;
65583;SDS011;73032;43.592;1.458;2023-11-19T06:15:41;6.38;;;3.58;;
65583;SDS011;73032;43.592;1.458;2023-11-19T06:18:08;6.05;;;3.58;;
65583;SDS011;73032;43.592;1.458;2023-11-19T06:20:38;6.05;;;3.47;;
65583;SDS011;73032;43.592;1.458;2023-11-19T06:23:08;8.23;;;3.90;;
65583;SDS011;73032;43.592;1.458;2023-11-19T06:25:34;7.53;;;4.03;;
65583;SDS011;73032;43.592;1.458;2023-11-19T06:28:02;7.25;;;3.60;;
65583;SDS011;73032;43.592;1.458;2023-11-19T06:30:29;8.95;;;4.30;;
65583;SDS011;73032;43.592;1.458;2023-11-19T06:32:59;7.10;;;3.67;;
65583;SDS011;73032;43.592;1.458;2023-11-19T06:35:26;8.38;;;4.03;;
65583;SDS011;73032;43.592;1.458;2023-11-19T06:37:53;6.57;;;3.47;;
65583;SDS011;73032;43.592;1.458;2023-11-19T06:40:21;6.22;;;3.70;;
65583;SDS011;73032;43.592;1.458;2023-11-19T06:42:47;7.03;;;4.00;;
65583;SDS011;73032;43.592;1.458;2023-11-19T06:45:14;7.03;;;3.45;;
65583;SDS011;73032;43.592;1.458;2023-11-19T06:47:41;5.80;;;3.35;;
65583;SDS011;73032;43.592;1.458;2023-11-19T06:50:07;6.95;;;3.42;;
65583;SDS011;73032;43.592;1.458;2023-11-19T06:52:35;7.20;;;3.78;;
65583;SDS011;73032;43.592;1.458;2023-11-19T06:55:04;7.53;;;3.75;;
65583;SDS011;73032;43.592;1.458;2023-11-19T06:57:34;6.57;;;3.35;;
65583;SDS011;73032;43.592;1.458;2023-11-19T07:00:01;7.40;;;3.63;;
65583;SDS011;73032;43.592;1.458;2023-11-19T07:02:29;7.30;;;3.70;;
65583;SDS011;73032;43.592;1.458;2023-11-19T07:04:56;5.32;;;3.10;;
65583;SDS011;73032;43.592;1.458;2023-11-19T07:07:23;6.78;;;3.70;;
65583;SDS011;73032;43.592;1.458;2023-11-19T07:09:49;5.70;;;3.50;;
65583;SDS011;73032;43.592;1.458;2023-11-19T07:12:16;6.80;;;3.55;;
65583;SDS011;73032;43.592;1.458;2023-11-19T07:14:43;5.15;;;3.22;;
65583;SDS011;73032;43.592;1.458;2023-11-19T07:17:09;6.13;;;3.55;;
65583;SDS011;73032;43.592;1.458;2023-11-19T07:19:36;7.43;;;3.78;;
65583;SDS011;73032;43.592;1.458;2023-11-19T07:22:05;7.15;;;3.47;;
65583;SDS011;73032;43.592;1.458;2023-11-19T07:24:32;8.05;;;3.83;;
65583;SDS011;73032;43.592;1.458;2023-11-19T07:26:59;8.27;;;4.18;;
65583;SDS011;73032;43.592;1.458;2023-11-19T07:29:27;5.32;;;3.42;;
65583;SDS011;73032;43.592;1.458;2023-11-19T07:31:55;6.40;;;3.38;;
65583;SDS011;73032;43.592;1.458;2023-11-19T07:34:23;7.05;;;3.72;;
65583;SDS011;73032;43.592;1.458;2023-11-19T07:36:51;8.77;;;3.95;;
65583;SDS011;73032;43.592;1.458;2023-11-19T07:39:18;6.57;;;3.42;;
65583;SDS011;73032;43.592;1.458;2023-11-19T07:41:47;7.40;;;3.63;;
65583;SDS011;73032;43.592;1.458;2023-11-19T07:44:13;7.03;;;3.83;;
65583;SDS011;73032;43.592;1.458;2023-11-19T07:46:40;7.82;;;4.50;;
65583;SDS011;73032;43.592;1.458;2023-11-19T07:49:08;8.18;;;3.78;;
65583;SDS011;73032;43.592;1.458;2023-11-19T07:51:36;7.38;;;3.92;;
65583;SDS011;73032;43.592;1.458;2023-11-19T07:54:03;9.30;;;4.15;;
65583;SDS011;73032;43.592;1.458;2023-11-19T07:56:31;7.40;;;4.20;;
65583;SDS011;73032;43.592;1.458;2023-11-19T07:59:01;8.43;;;4.45;;
65583;SDS011;73032;43.592;1.458;2023-11-19T08:01:28;8.50;;;4.20;;
65583;SDS011;73032;43.592;1.458;2023-11-19T08:03:55;7.43;;;4.40;;
65583;SDS011;73032;43.592;1.458;2023-11-19T08:06:25;8.02;;;4.22;;
65583;SDS011;73032;43.592;1.458;2023-11-19T08:08:52;6.95;;;4.47;;
65583;SDS011;73032;43.592;1.458;2023-11-19T08:11:18;7.32;;;4.25;;
65583;SDS011;73032;43.592;1.458;2023-11-19T08:13:46;6.72;;;4.22;;
65583;SDS011;73032;43.592;1.458;2023-11-19T08:16:13;8.85;;;4.30;;
65583;SDS011;73032;43.592;1.458;2023-11-19T08:18:44;8.52;;;4.50;;
65583;SDS011;73032;43.592;1.458;2023-11-19T08:21:11;7.65;;;4.40;;
65583;SDS011;73032;43.592;1.458;2023-11-19T08:23:37;7.70;;;4.05;;
65583;SDS011;73032;43.592;1.458;2023-11-19T08:26:05;7.95;;;4.25;;
65583;SDS011;73032;43.592;1.458;2023-11-19T08:28:32;6.15;;;3.50;;
65583;SDS011;73032;43.592;1.458;2023-11-19T08:31:01;11.55;;;4.45;;
65583;SDS011;73032;43.592;1.458;2023-11-19T08:33:30;7.53;;;4.15;;
65583;SDS011;73032;43.592;1.458;2023-11-19T08:35:57;7.28;;;4.35;;
65583;SDS011;73032;43.592;1.458;2023-11-19T08:38:24;6.97;;;3.80;;
65583;SDS011;73032;43.592;1.458;2023-11-19T08:40:57;7.60;;;4.18;;
65583;SDS011;73032;43.592;1.458;2023-11-19T08:43:26;6.97;;;4.10;;
65583;SDS011;73032;43.592;1.458;2023-11-19T08:45:53;8.32;;;4.10;;
65583;SDS011;73032;43.592;1.458;2023-11-19T08:48:20;8.02;;;4.22;;
65583;SDS011;73032;43.592;1.458;2023-11-19T08:50:47;6.75;;;4.10;;
65583;SDS011;73032;43.592;1.458;2023-11-19T08:53:14;6.15;;;4.03;;
65583;SDS011;73032;43.592;1.458;2023-11-19T08:55:41;6.88;;;3.90;;
65583;SDS011;73032;43.592;1.458;2023-11-19T08:58:08;9.50;;;4.28;;
65583;SDS011;73032;43.592;1.458;2023-11-19T09:00:35;5.95;;;3.65;;
65583;SDS011;73032;43.592;1.458;2023-11-19T09:03:01;7.50;;;3.72;;
65583;SDS011;73032;43.592;1.458;2023-11-19T09:05:29;5.93;;;3.83;;
65583;SDS011;73032;43.592;1.458;2023-11-19T09:07:55;7.15;;;4.28;;
65583;SDS011;73032;43.592;1.458;2023-11-19T09:10:22;7.57;;;4.57;;
65583;SDS011;73032;43.592;1.458;2023-11-19T09:12:48;6.53;;;4.00;;
65583;SDS011;73032;43.592;1.458;2023-11-19T09:15:15;6.53;;;4.00;;
65583;SDS011;73032;43.592;1.458;2023-11-19T09:17:42;8.27;;;4.43;;
65583;SDS011;73032;43.592;1.458;2023-11-19T09:20:09;8.18;;;3.80;;
65583;SDS011;73032;43.592;1.458;2023-11-19T09:22:38;5.93;;;3.78;;
65583;SDS011;73032;43.592;1.458;2023-11-19T09:25:05;6.82;;;3.83;;
65583;SDS011;73032;43.592;1.458;2023-11-19T09:27:32;8.23;;;3.53;;
65583;SDS011;73032;43.592;1.458;2023-11-19T09:29:59;6.95;;;3.95;;
65583;SDS011;73032;43.592;1.458;2023-11-19T09:32:26;5.75;;;3.58;;
65583;SDS011;73032;43.592;1.458;2023-11-19T09:34:53;8.43;;;3.88;;
65583;SDS011;73032;43.592;1.458;2023-11-19T09:37:20;5.28;;;3.30;;
65583;SDS011;73032;43.592;1.458;2023-11-19T09:39:47;6.50;;;2.88;;
65583;SDS011;73032;43.592;1.458;2023-11-19T09:42:14;4.40;;;2.63;;
65583;SDS011;73032;43.592;1.458;2023-11-19T09:44:40;5.57;;;2.55;;
65583;SDS011;73032;43.592;1.458;2023-11-19T09:47:10;5.55;;;2.60;;
65583;SDS011;73032;43.592;1.458;2023-11-19T09:49:41;5.00;;;2.67;;
65583;SDS011;73032;43.592;1.458;2023-11-19T09:52:08;5.75;;;2.72;;
65583;SDS011;73032;43.592;1.458;2023-11-19T09:54:34;6.38;;;2.40;;
65583;SDS011;73032;43.592;1.458;2023-11-19T09:57:01;4.30;;;2.72;;
65583;SDS011;73032;43.592;1.458;2023-11-19T09:59:32;7.35;;;3.20;;
65583;SDS011;73032;43.592;1.458;2023-11-19T10:01:59;5.95;;;3.03;;
65583;SDS011;73032;43.592;1.458;2023-11-19T10:04:27;5.40;;;2.70;;
65583;SDS011;73032;43.592;1.458;2023-11-19T10:06:57;5.25;;;2.83;;
65583;SDS011;73032;43.592;1.458;2023-11-19T10:09:24;4.13;;;2.38;;
65583;SDS011;73032;43.592;1.458;2023-11-19T10:11:50;4.38;;;2.40;;
65583;SDS011;73032;43.592;1.458;2023-11-19T10:14:19;5.18;;;2.88;;
65583;SDS011;73032;43.592;1.458;2023-11-19T10:16:50;4.93;;;2.50;;
65583;SDS011;73032;43.592;1.458;2023-11-19T10:19:20;7.45;;;3.38;;
65583;SDS011;73032;43.592;1.458;2023-11-19T10:21:47;7.38;;;3.30;;
65583;SDS011;73032;43.592;1.458;2023-11-19T10:24:14;5.80;;;2.85;;
65583;SDS011;73032;43.592;1.458;2023-11-19T10:26:56;5.05;;;2.90;;
65583;SDS011;73032;43.592;1.458;2023-11-19T10:29:23;6.53;;;3.25;;
65583;SDS011;73032;43.592;1.458;2023-11-19T10:31:57;6.43;;;3.65;;
65583;SDS011;73032;43.592;1.458;2023-11-19T10:34:45;5.50;;;3.15;;
65583;SDS011;73032;43.592;1.458;2023-11-19T10:37:27;4.70;;;3.13;;
65583;SDS011;73032;43.592;1.458;2023-11-19T10:39:56;6.13;;;3.17;;
65583;SDS011;73032;43.592;1.458;2023-11-19T10:42:23;6.63;;;3.60;;
65583;SDS011;73032;43.592;1.458;2023-11-19T10:44:50;7.90;;;3.78;;
65583;SDS011;73032;43.592;1.458;2023-11-19T10:47:20;6.95;;;3.28;;
65583;SDS011;73032;43.592;1.458;2023-11-19T10:49:52;7.78;;;3.58;;
65583;SDS011;73032;43.592;1.458;2023-11-19T10:52:18;5.78;;;3.38;;
65583;SDS011;73032;43.592;1.458;2023-11-19T10:54:49;5.07;;;2.78;;
65583;SDS011;73032;43.592;1.458;2023-11-19T10:57:20;4.22;;;2.50;;
65583;SDS011;73032;43.592;1.458;2023-11-19T10:59:52;7.65;;;2.67;;
65583;SDS011;73032;43.592;1.458;2023-11-19T11:02:22;4.25;;;2.47;;
65583;SDS011;73032;43.592;1.458;2023-11-19T11:04:52;8.15;;;2.80;;
65583;SDS011;73032;43.592;1.458;2023-11-19T11:07:20;5.38;;;2.63;;
65583;SDS011;73032;43.592;1.458;2023-11-19T11:10:02;6.20;;;2.35;;
65583;SDS011;73032;43.592;1.458;2023-11-19T11:15:01;4.13;;;2.40;;
65583;SDS011;73032;43.592;1.458;2023-11-19T11:19:59;4.28;;;2.53;;
65583;SDS011;73032;43.592;1.458;2023-11-19T11:22:27;4.10;;;2.63;;
65583;SDS011;73032;43.592;1.458;2023-11-19T11:25:11;4.60;;;2.38;;
65583;SDS011;73032;43.592;1.458;2023-11-19T11:27:58;7.40;;;3.15;;
65583;SDS011;73032;43.592;1.458;2023-11-19T11:30:45;8.38;;;2.55;;
65583;SDS011;73032;43.592;1.458;2023-11-19T11:33:25;6.05;;;2.90;;
65583;SDS011;73032;43.592;1.458;2023-11-19T11:36:06;5.45;;;2.55;;
65583;SDS011;73032;43.592;1.458;2023-11-19T11:38:48;4.43;;;2.67;;
65583;SDS011;73032;43.592;1.458;2023-11-19T11:41:20;5.28;;;2.53;;
65583;SDS011;73032;43.592;1.458;2023-11-19T11:43:54;4.53;;;2.13;;
65583;SDS011;73032;43.592;1.458;2023-11-19T11:49:07;4.53;;;2.00;;
65583;SDS011;73032;43.592;1.458;2023-11-19T11:54:11;4.53;;;2.25;;
65583;SDS011;73032;43.592;1.458;2023-11-19T11:57:12;3.40;;;1.90;;
65583;SDS011;73032;43.592;1.458;2023-11-19T11:59:49;4.15;;;2.17;;
65583;SDS011;73032;43.592;1.458;2023-11-19T12:02:17;3.95;;;2.05;;
65583;SDS011;73032;43.592;1.458;2023-11-19T12:04:48;4.80;;;2.40;;
65583;SDS011;73032;43.592;1.458;2023-11-19T12:07:18;4.60;;;2.63;;
65583;SDS011;73032;43.592;1.458;2023-11-19T12:09:50;4.35;;;2.33;;
65583;SDS011;73032;43.592;1.458;2023-11-19T12:12:26;5.50;;;2.47;;
65583;SDS011;73032;43.592;1.458;2023-11-19T12:20:00;3.63;;;2.25;;
65583;SDS011;73032;43.592;1.458;2023-11-19T12:22:38;5.18;;;2.30;;
65583;SDS011;73032;43.592;1.458;2023-11-19T12:25:06;5.03;;;2.15;;
65583;SDS011;73032;43.592;1.458;2023-11-19T12:27:44;3.90;;;2.15;;
65583;SDS011;73032;43.592;1.458;2023-11-19T12:30:14;3.17;;;2.00;;
65583;SDS011;73032;43.592;1.458;2023-11-19T12:32:44;5.63;;;2.30;;
65583;SDS011;73032;43.592;1.458;2023-11-19T12:35:12;3.95;;;2.20;;
65583;SDS011;73032;43.592;1.458;2023-11-19T12:37:40;5.85;;;2.20;;
65583;SDS011;73032;43.592;1.458;2023-11-19T12:42:44;3.72;;;1.70;;
65583;SDS011;73032;43.592;1.458;2023-11-19T12:45:14;3.00;;;1.90;;
65583;SDS011;73032;43.592;1.458;2023-11-19T12:47:43;2.55;;;1.30;;
65583;SDS011;73032;43.592;1.458;2023-11-19T12:50:10;3.95;;;1.75;;
65583;SDS011;73032;43.592;1.458;2023-11-19T12:52:37;3.78;;;1.73;;
65583;SDS011;73032;43.592;1.458;2023-11-19T12:55:04;3.65;;;1.50;;
65583;SDS011;73032;43.592;1.458;2023-11-19T12:57:41;3.67;;;1.77;;
65583;SDS011;73032;43.592;1.458;2023-11-19T13:00:18;3.92;;;1.90;;
65583;SDS011;73032;43.592;1.458;2023-11-19T13:02:48;4.05;;;2.30;;
65583;SDS011;73032;43.592;1.458;2023-11-19T13:05:28;4.85;;;2.10;;
65583;SDS011;73032;43.592;1.458;2023-11-19T13:08:08;3.38;;;2.00;;
65583;SDS011;73032;43.592;1.458;2023-11-19T13:13:14;3.72;;;1.77;;
65583;SDS011;73032;43.592;1.458;2023-11-19T13:15:41;5.53;;;2.03;;
65583;SDS011;73032;43.592;1.458;2023-11-19T13:18:07;3.55;;;2.05;;
65583;SDS011;73032;43.592;1.458;2023-11-19T13:20:34;4.60;;;1.77;;
65583;SDS011;73032;43.592;1.458;2023-11-19T13:23:01;4.90;;;2.10;;
65583;SDS011;73032;43.592;1.458;2023-11-19T13:25:30;3.65;;;2.00;;
65583;SDS011;73032;43.592;1.458;2023-11-19T13:27:58;2.80;;;1.60;;
65583;SDS011;73032;43.592;1.458;2023-11-19T13:30:25;3.83;;;2.30;;
65583;SDS011;73032;43.592;1.458;2023-11-19T13:32:53;3.80;;;1.90;;
65583;SDS011;73032;43.592;1.458;2023-11-19T13:35:22;4.57;;;1.98;;
65583;SDS011;73032;43.592;1.458;2023-11-19T13:37:49;4.82;;;2.05;;
65583;SDS011;73032;43.592;1.458;2023-11-19T13:40:16;3.80;;;1.63;;
65583;SDS011;73032;43.592;1.458;2023-11-19T13:42:45;5.10;;;2.05;;
65583;SDS011;73032;43.592;1.458;2023-11-19T13:45:15;4.38;;;2.00;;
65583;SDS011;73032;43.592;1.458;2023-11-19T13:47:45;4.13;;;1.88;;
65583;SDS011;73032;43.592;1.458;2023-11-19T13:50:13;6.50;;;1.70;;
65583;SDS011;73032;43.592;1.458;2023-11-19T13:52:41;3.40;;;1.60;;
65583;SDS011;73032;43.592;1.458;2023-11-19T13:55:09;4.38;;;1.70;;
65583;SDS011;73032;43.592;1.458;2023-11-19T13:57:37;3.53;;;1.67;;
65583;SDS011;73032;43.592;1.458;2023-11-19T14:00:06;4.07;;;1.90;;
65583;SDS011;73032;43.592;1.458;2023-11-19T14:02:39;4.68;;;1.70;;
65583;SDS011;73032;43.592;1.458;2023-11-19T14:05:07;3.45;;;1.65;;
65583;SDS011;73032;43.592;1.458;2023-11-19T14:07:37;3.15;;;1.70;;
65583;SDS011;73032;43.592;1.458;2023-11-19T14:10:04;3.88;;;1.73;;
65583;SDS011;73032;43.592;1.458;2023-11-19T14:12:32;2.60;;;1.67;;
65583;SDS011;73032;43.592;1.458;2023-11-19T14:14:59;3.42;;;1.92;;
65583;SDS011;73032;43.592;1.458;2023-11-19T14:17:26;3.53;;;2.13;;
65583;SDS011;73032;43.592;1.458;2023-11-19T14:19:53;2.85;;;1.63;;
65583;SDS011;73032;43.592;1.458;2023-11-19T14:22:19;5.18;;;2.10;;
65583;SDS011;73032;43.592;1.458;2023-11-19T14:24:46;4.22;;;1.83;;
65583;SDS011;73032;43.592;1.458;2023-11-19T14:27:13;3.20;;;1.70;;
65583;SDS011;73032;43.592;1.458;2023-11-19T14:29:39;3.60;;;1.80;;
65583;SDS011;73032;43.592;1.458;2023-11-19T14:32:06;3.80;;;1.63;;
65583;SDS011;73032;43.592;1.458;2023-11-19T14:34:33;6.38;;;1.90;;
65583;SDS011;73032;43.592;1.458;2023-11-19T14:37:00;4.22;;;1.77;;
65583;SDS011;73032;43.592;1.458;2023-11-19T14:39:27;4.68;;;1.80;;
65583;SDS011;73032;43.592;1.458;2023-11-19T14:41:55;3.95;;;1.90;;
65583;SDS011;73032;43.592;1.458;2023-11-19T14:44:24;2.75;;;1.55;;
65583;SDS011;73032;43.592;1.458;2023-11-19T14:46:51;4.35;;;1.70;;
65583;SDS011;73032;43.592;1.458;2023-11-19T14:49:18;3.30;;;1.60;;
65583;SDS011;73032;43.592;1.458;2023-11-19T14:51:45;3.00;;;1.40;;
65583;SDS011;73032;43.592;1.458;2023-11-19T14:54:14;2.83;;;1.65;;
65583;SDS011;73032;43.592;1.458;2023-11-19T14:56:42;3.53;;;1.50;;
65583;SDS011;73032;43.592;1.458;2023-11-19T14:59:09;3.40;;;1.33;;
65583;SDS011;73032;43.592;1.458;2023-11-19T15:01:35;3.50;;;1.60;;
65583;SDS011;73032;43.592;1.458;2023-11-19T15:04:03;2.70;;;1.50;;
65583;SDS011;73032;43.592;1.458;2023-11-19T15:06:32;3.97;;;1.60;;
65583;SDS011;73032;43.592;1.458;2023-11-19T15:09:00;2.72;;;1.30;;
65583;SDS011;73032;43.592;1.458;2023-11-19T15:11:27;3.03;;;1.20;;
65583;SDS011;73032;43.592;1.458;2023-11-19T15:13:53;2.17;;;1.33;;
65583;SDS011;73032;43.592;1.458;2023-11-19T15:16:20;3.88;;;1.50;;
65583;SDS011;73032;43.592;1.458;2023-11-19T15:18:52;3.63;;;1.40;;